createdAt,value
2023-01-23T00:00:17.825Z,2.57
2023-01-23T00:03:06.309Z,2.56
2023-01-23T00:05:34.685Z,2.54
2023-01-23T00:08:03.196Z,2.58
2023-01-23T00:10:31.553Z,2.62
2023-01-23T00:13:00.170Z,2.56
2023-01-23T00:15:28.606Z,2.52
2023-01-23T00:17:57.440Z,2.55
2023-01-23T00:20:25.762Z,2.58
2023-01-23T00:22:54.815Z,2.63
2023-01-23T00:25:23.156Z,2.65
2023-01-23T00:27:51.541Z,2.63
2023-01-23T00:30:20.307Z,2.62
2023-01-23T00:32:48.766Z,2.62
2023-01-23T00:35:17.715Z,2.60
2023-01-23T00:37:46.585Z,2.57
2023-01-23T00:40:15.187Z,2.52
2023-01-23T00:42:43.540Z,2.37
2023-01-23T00:45:12.933Z,2.46
2023-01-23T00:47:41.954Z,2.39
2023-01-23T00:50:12.311Z,2.41
2023-01-23T00:52:40.672Z,2.40
2023-01-23T00:55:10.736Z,2.29
2023-01-23T00:57:39.142Z,2.37
2023-01-23T01:00:11.531Z,2.42
2023-01-23T01:02:39.883Z,2.39
2023-01-23T01:05:09.614Z,2.35
2023-01-23T01:07:38.021Z,2.40
2023-01-23T01:10:08.656Z,2.34
2023-01-23T01:12:39.144Z,2.31
2023-01-23T01:15:10.634Z,2.33
2023-01-23T01:17:40.387Z,2.32
2023-01-23T01:20:11.333Z,2.37
2023-01-23T01:22:39.809Z,2.38
2023-01-23T01:25:09.449Z,2.34
2023-01-23T01:27:37.987Z,2.29
2023-01-23T01:30:08.910Z,2.34
2023-01-23T01:32:38.905Z,2.31
2023-01-23T01:35:09.623Z,2.36
2023-01-23T01:37:39.927Z,2.31
2023-01-23T01:40:15.712Z,2.29
2023-01-23T01:42:47.029Z,2.30
2023-01-23T01:45:51.966Z,2.23
2023-01-23T01:48:23.378Z,2.20
2023-01-23T01:50:52.768Z,2.21
2023-01-23T01:53:25.553Z,2.29
2023-01-23T01:55:54.426Z,2.20
2023-01-23T01:58:23.934Z,2.07
2023-01-23T02:00:52.575Z,2.05
2023-01-23T02:03:21.752Z,2.04
2023-01-23T02:05:51.307Z,1.97
2023-01-23T02:08:26.947Z,1.92
2023-01-23T02:10:56.050Z,1.97
2023-01-23T02:13:31.641Z,2.09
2023-01-23T02:16:03.056Z,2.08
2023-01-23T02:18:34.368Z,2.12
2023-01-23T02:21:07.600Z,2.16
2023-01-23T02:23:46.505Z,2.17
2023-01-23T02:26:21.308Z,2.16
2023-01-23T02:28:52.684Z,2.09
2023-01-23T02:31:23.345Z,2.01
2023-01-23T02:33:54.095Z,1.93
2023-01-23T02:36:25.738Z,1.89
2023-01-23T02:39:01.086Z,1.96
2023-01-23T02:41:31.423Z,2.07
2023-01-23T02:44:04.184Z,2.10
2023-01-23T02:46:31.819Z,2.11
2023-01-23T02:49:00.265Z,2.07
2023-01-23T02:51:29.110Z,2.07
2023-01-23T02:53:57.965Z,2.07
2023-01-23T02:56:27.461Z,2.14
2023-01-23T02:59:15.046Z,2.19
2023-01-23T03:01:44.002Z,2.24
2023-01-23T03:04:14.549Z,2.30
2023-01-23T03:06:43.090Z,2.21
2023-01-23T03:09:14.007Z,2.14
2023-01-23T03:11:44.471Z,2.21
2023-01-23T03:14:16.870Z,2.18
2023-01-23T03:16:49.557Z,2.08
2023-01-23T03:19:19.028Z,2.04
2023-01-23T03:21:47.420Z,2.12
2023-01-23T03:24:16.251Z,2.05
2023-01-23T03:26:46.603Z,1.99
2023-01-23T03:29:35.152Z,1.98
2023-01-23T03:32:04.679Z,2.05
2023-01-23T03:34:33.484Z,2.08
2023-01-23T03:37:02.931Z,2.05
2023-01-23T03:39:50.073Z,2.05
2023-01-23T03:42:19.729Z,2.05
2023-01-23T03:44:48.767Z,1.92
2023-01-23T03:47:17.560Z,2.04
2023-01-23T03:49:45.974Z,2.08
2023-01-23T03:52:14.945Z,1.94
2023-01-23T03:54:44.248Z,1.95
2023-01-23T03:57:12.592Z,2.01
2023-01-23T04:00:00.125Z,1.99
2023-01-23T04:02:42.126Z,1.99
2023-01-23T04:05:13.046Z,1.99
2023-01-23T04:07:41.421Z,1.99
2023-01-23T04:10:13.156Z,2.03
2023-01-23T04:12:43.556Z,2.08
2023-01-23T04:15:13.010Z,2.12
2023-01-23T04:17:42.515Z,2.10
2023-01-23T04:20:12.770Z,2.01
2023-01-23T04:22:42.705Z,1.99
2023-01-23T04:25:11.534Z,2.01
2023-01-23T04:27:40.123Z,1.88
2023-01-23T04:30:11.810Z,1.79
2023-01-23T04:32:40.528Z,1.74
2023-01-23T04:35:09.943Z,1.81
2023-01-23T04:37:39.649Z,1.93
2023-01-23T04:40:11.905Z,1.89
2023-01-23T04:42:50.721Z,1.97
2023-01-23T04:45:31.617Z,2.03
2023-01-23T04:48:20.346Z,1.95
2023-01-23T04:50:50.677Z,1.98
2023-01-23T04:53:19.389Z,2.01
2023-01-23T04:55:49.880Z,2.05
2023-01-23T04:58:19.798Z,1.91
2023-01-23T05:00:48.363Z,1.86
2023-01-23T05:03:17.745Z,1.92
2023-01-23T05:05:48.699Z,1.88
2023-01-23T05:08:17.138Z,1.86
2023-01-23T05:10:50.286Z,1.81
2023-01-23T05:13:19.502Z,1.84
2023-01-23T05:15:48.615Z,1.83
2023-01-23T05:18:18.413Z,1.85
2023-01-23T05:20:47.587Z,1.74
2023-01-23T05:23:16.350Z,1.74
2023-01-23T05:25:49.572Z,1.76
2023-01-23T05:28:17.958Z,1.82
2023-01-23T05:30:49.695Z,1.86
2023-01-23T05:33:25.051Z,1.93
2023-01-23T05:35:53.489Z,1.91
2023-01-23T05:38:21.899Z,1.92
2023-01-23T05:40:50.588Z,1.91
2023-01-23T05:43:36.508Z,1.93
2023-01-23T05:46:28.154Z,1.81
2023-01-23T05:48:57.864Z,1.83
2023-01-23T05:51:31.606Z,1.85
2023-01-23T05:54:01.649Z,1.95
2023-01-23T05:56:30.335Z,1.84
2023-01-23T05:59:17.543Z,1.90
2023-01-23T06:02:06.225Z,1.96
2023-01-23T06:05:01.118Z,1.95
2023-01-23T06:07:38.242Z,2.04
2023-01-23T06:10:10.367Z,2.06
2023-01-23T06:12:38.728Z,2.10
2023-01-23T06:15:08.853Z,2.10
2023-01-23T06:17:37.377Z,2.11
2023-01-23T06:20:10.240Z,2.09
2023-01-23T06:22:39.816Z,2.08
2023-01-23T06:25:11.940Z,2.13
2023-01-23T06:27:40.582Z,2.17
2023-01-23T06:30:13.737Z,2.21
2023-01-23T06:32:43.945Z,2.25
2023-01-23T06:35:12.569Z,2.26
2023-01-23T06:37:42.673Z,2.14
2023-01-23T06:40:14.952Z,2.09
2023-01-23T06:42:50.194Z,2.01
2023-01-23T06:45:19.505Z,2.01
2023-01-23T06:47:48.158Z,2.11
2023-01-23T06:50:18.015Z,2.16
2023-01-23T06:52:46.725Z,2.16
2023-01-23T06:55:15.155Z,2.17
2023-01-23T06:57:45.047Z,2.23
2023-01-23T07:00:16.233Z,2.21
2023-01-23T07:02:45.815Z,2.21
2023-01-23T07:05:15.503Z,2.21
2023-01-23T07:07:47.512Z,2.22
2023-01-23T07:10:16.050Z,2.26
2023-01-23T07:12:44.783Z,2.26
2023-01-23T07:15:13.253Z,2.26
2023-01-23T07:17:42.446Z,2.30
2023-01-23T07:20:13.551Z,2.33
2023-01-23T07:22:44.406Z,2.32
2023-01-23T07:25:12.960Z,2.32
2023-01-23T07:27:41.579Z,2.25
2023-01-23T07:30:12.465Z,2.28
2023-01-23T07:32:41.027Z,2.14
2023-01-23T07:35:12.197Z,2.16
2023-01-23T07:37:40.763Z,2.22
2023-01-23T07:40:12.334Z,2.26
2023-01-23T07:42:43.909Z,2.24
2023-01-23T07:45:13.445Z,2.17
2023-01-23T07:47:44.127Z,2.09
2023-01-23T07:50:13.840Z,2.05
2023-01-23T07:52:42.203Z,2.06
2023-01-23T07:55:10.756Z,2.16
2023-01-23T07:57:39.313Z,2.09
2023-01-23T08:00:10.791Z,2.12
2023-01-23T08:02:41.933Z,2.09
2023-01-23T08:05:10.994Z,2.10
2023-01-23T08:07:39.630Z,2.00
2023-01-23T08:10:11.221Z,1.96
2023-01-23T08:12:39.811Z,2.03
2023-01-23T08:15:09.999Z,1.94
2023-01-23T08:17:38.370Z,2.04
2023-01-23T08:20:09.926Z,2.17
2023-01-23T08:22:40.256Z,2.23
2023-01-23T08:25:10.653Z,2.30
2023-01-23T08:27:39.060Z,2.33
2023-01-23T08:30:10.238Z,2.37
2023-01-23T08:32:39.088Z,2.38
2023-01-23T08:35:09.263Z,2.34
2023-01-23T08:37:38.120Z,2.20
2023-01-23T08:40:09.577Z,2.23
2023-01-23T08:42:38.013Z,2.18
2023-01-23T08:45:09.294Z,2.16
2023-01-23T08:47:37.927Z,2.25
2023-01-23T08:50:10.500Z,2.33
2023-01-23T08:52:39.475Z,2.35
2023-01-23T08:55:11.964Z,2.37
2023-01-23T08:57:40.380Z,2.47
2023-01-23T09:00:13.317Z,2.41
2023-01-23T09:02:42.078Z,2.35
2023-01-23T09:05:11.218Z,2.24
2023-01-23T09:07:40.218Z,2.31
2023-01-23T09:10:12.434Z,2.43
2023-01-23T09:12:42.038Z,2.49
2023-01-23T09:15:22.633Z,2.57
2023-01-23T09:17:51.209Z,2.53
2023-01-23T09:20:20.664Z,2.38
2023-01-23T09:22:49.569Z,2.44
2023-01-23T09:25:18.386Z,2.56
2023-01-23T09:27:47.047Z,2.60
2023-01-23T09:30:16.460Z,2.50
2023-01-23T09:32:45.313Z,2.42
2023-01-23T09:35:14.440Z,2.53
2023-01-23T09:38:00.803Z,2.57
2023-01-23T09:40:32.161Z,2.61
2023-01-23T09:43:11.393Z,2.62
2023-01-23T09:45:43.229Z,2.71
2023-01-23T09:48:20.896Z,2.76
2023-01-23T09:50:56.272Z,2.84
2023-01-23T09:53:30.457Z,2.76
2023-01-23T09:56:04.143Z,2.81
2023-01-23T09:58:38.876Z,2.83
2023-01-23T10:01:10.956Z,2.78
2023-01-23T10:03:40.281Z,2.72
2023-01-23T10:06:21.134Z,2.76
2023-01-23T10:09:31.874Z,2.73
2023-01-23T10:12:10.109Z,2.80
2023-01-23T10:15:02.954Z,2.88
2023-01-23T10:17:41.180Z,2.85
2023-01-23T10:20:29.646Z,2.85
2023-01-23T10:23:11.771Z,2.73
2023-01-23T10:25:40.806Z,2.54
2023-01-23T10:28:29.019Z,2.63
2023-01-23T10:31:01.156Z,2.75
2023-01-23T10:33:40.677Z,2.90
2023-01-23T10:36:23.946Z,2.93
2023-01-23T10:39:00.169Z,2.96
2023-01-23T10:41:28.907Z,2.96
2023-01-23T10:44:00.174Z,2.99
2023-01-23T10:46:33.142Z,3.02
2023-01-23T10:49:02.795Z,3.09
2023-01-23T10:51:46.046Z,3.17
2023-01-23T10:54:31.333Z,3.16
2023-01-23T10:57:04.012Z,3.15
2023-01-23T10:59:35.904Z,3.14
2023-01-23T11:02:20.479Z,3.22
2023-01-23T11:04:53.986Z,3.21
2023-01-23T11:07:23.630Z,3.25
2023-01-23T11:09:55.633Z,3.25
2023-01-23T11:12:26.119Z,3.29
2023-01-23T11:15:12.669Z,3.24
2023-01-23T11:17:43.255Z,3.15
2023-01-23T11:20:24.143Z,3.16
2023-01-23T11:23:04.136Z,3.16
2023-01-23T11:25:36.832Z,3.08
2023-01-23T11:28:24.210Z,3.07
2023-01-23T11:31:12.288Z,3.02
2023-01-23T11:33:47.275Z,2.92
2023-01-23T11:36:38.321Z,2.95
2023-01-23T11:39:18.440Z,3.01
2023-01-23T11:41:47.835Z,3.08
2023-01-23T11:44:20.067Z,3.20
2023-01-23T11:47:13.044Z,3.32
2023-01-23T11:50:02.570Z,3.27
2023-01-23T11:52:42.737Z,3.17
2023-01-23T11:55:29.439Z,3.08
2023-01-23T11:58:06.379Z,3.05
2023-01-23T12:00:38.298Z,3.11
2023-01-23T12:03:52.173Z,3.15
2023-01-23T12:06:34.964Z,3.08
2023-01-23T12:09:09.129Z,3.03
2023-01-23T12:11:48.384Z,3.07
2023-01-23T12:14:25.552Z,3.11
2023-01-23T12:17:08.298Z,3.15
2023-01-23T12:20:01.230Z,3.13
2023-01-23T12:22:33.808Z,3.17
2023-01-23T12:25:21.711Z,3.16
2023-01-23T12:27:58.958Z,3.22
2023-01-23T12:30:46.303Z,3.44
2023-01-23T12:33:34.796Z,3.40
2023-01-23T12:36:19.295Z,3.42
2023-01-23T12:38:56.965Z,3.37
2023-01-23T12:41:36.995Z,3.42
2023-01-23T12:44:13.853Z,3.30
2023-01-23T12:46:49.457Z,3.37
2023-01-23T12:49:31.274Z,3.42
2023-01-23T12:52:05.442Z,3.18
2023-01-23T12:54:40.781Z,3.06
2023-01-23T12:57:12.357Z,3.04
2023-01-23T12:59:57.694Z,3.06
2023-01-23T13:02:38.666Z,3.15
2023-01-23T13:05:19.361Z,3.10
2023-01-23T13:07:55.730Z,3.11
2023-01-23T13:10:58.710Z,3.11
2023-01-23T13:13:28.069Z,3.07
2023-01-23T13:16:10.312Z,3.09
2023-01-23T13:18:58.160Z,3.12
2023-01-23T13:21:44.856Z,3.00
2023-01-23T13:25:02.193Z,2.92
2023-01-23T13:27:44.164Z,2.94
2023-01-23T13:30:40.418Z,3.00
2023-01-23T13:33:55.067Z,3.02
2023-01-23T13:36:37.988Z,2.98
2023-01-23T13:39:20.519Z,3.07
2023-01-23T13:41:51.753Z,3.15
2023-01-23T13:44:27.065Z,3.16
2023-01-23T14:20:38.917Z,2.83
2023-01-23T14:23:29.956Z,2.91
2023-01-23T14:25:58.550Z,2.91
2023-01-23T14:28:27.096Z,2.93
2023-01-23T14:30:58.416Z,2.99
2023-01-23T14:33:28.168Z,3.04
2023-01-23T14:35:57.240Z,3.01
2023-01-23T14:38:29.917Z,3.01
2023-01-23T14:40:59.117Z,3.23
2023-01-23T14:43:31.991Z,3.06
2023-01-23T14:46:03.905Z,2.93
2023-01-23T14:48:39.788Z,2.97
2023-01-23T14:51:18.687Z,2.88
2023-01-23T14:53:54.169Z,2.87
2023-01-23T14:56:27.427Z,2.88
2023-01-23T14:58:58.594Z,2.98
2023-01-23T15:01:27.920Z,2.97
2023-01-23T15:03:58.945Z,3.06
2023-01-23T15:06:28.323Z,3.10
2023-01-23T15:09:13.269Z,3.12
2023-01-23T15:11:42.407Z,3.07
2023-01-23T15:14:24.877Z,2.94
2023-01-23T15:17:01.748Z,2.83
2023-01-23T15:19:34.415Z,2.81
2023-01-23T15:22:08.265Z,2.89
2023-01-23T15:24:39.777Z,2.97
2023-01-23T15:27:25.635Z,2.93
2023-01-23T15:30:43.630Z,2.90
2023-01-23T15:33:28.206Z,2.82
2023-01-23T15:36:07.798Z,2.87
2023-01-23T15:38:36.606Z,2.86
2023-01-23T15:41:10.229Z,2.88
2023-01-23T15:43:40.000Z,2.95
2023-01-23T15:46:11.378Z,2.94
2023-01-23T15:48:39.737Z,2.87
2023-01-23T15:51:12.028Z,2.85
2023-01-23T15:53:40.398Z,2.85
2023-01-23T15:56:24.007Z,2.85
2023-01-23T15:58:53.110Z,2.73
2023-01-23T16:01:21.579Z,2.72
2023-01-23T16:03:49.909Z,2.80
2023-01-23T16:06:21.718Z,2.83
2023-01-23T16:09:00.864Z,2.77
2023-01-23T16:11:35.003Z,2.78
2023-01-23T16:14:03.587Z,2.80
2023-01-23T16:16:32.590Z,2.86
2023-01-23T16:19:01.456Z,2.88
2023-01-23T16:21:31.261Z,2.75
2023-01-23T16:24:00.420Z,2.68
2023-01-23T16:26:30.312Z,2.71
2023-01-23T16:29:13.215Z,2.75
2023-01-23T16:31:42.409Z,2.76
2023-01-23T16:34:10.888Z,2.80
2023-01-23T16:36:40.354Z,2.82
2023-01-23T16:39:16.750Z,2.85
2023-01-23T16:41:45.944Z,2.79
2023-01-23T16:44:17.581Z,2.78
2023-01-23T16:46:46.112Z,2.81
2023-01-23T16:49:15.019Z,2.86
2023-01-23T16:51:48.059Z,2.82
2023-01-23T16:54:19.249Z,2.85
2023-01-23T16:56:51.011Z,2.88
2023-01-23T16:59:26.127Z,2.91
2023-01-23T17:01:56.793Z,2.92
2023-01-23T17:04:26.909Z,2.86
2023-01-23T17:06:55.281Z,2.85
2023-01-23T17:09:24.120Z,2.88
2023-01-23T17:11:55.074Z,2.92
2023-01-23T17:14:28.621Z,2.94
2023-01-23T17:17:02.857Z,2.98
2023-01-23T17:19:35.256Z,2.99
2023-01-23T17:22:06.092Z,2.93
2023-01-23T17:24:34.483Z,2.91
2023-01-23T17:27:03.630Z,2.85
2023-01-23T17:29:32.973Z,2.66
2023-01-23T17:32:02.410Z,2.65
2023-01-23T17:34:45.104Z,2.71
2023-01-23T17:37:21.098Z,2.64
2023-01-23T17:39:49.753Z,2.64
2023-01-23T17:42:18.140Z,2.66
2023-01-23T17:44:46.510Z,2.53
2023-01-23T17:47:16.127Z,2.52
2023-01-23T17:49:50.322Z,2.60
2023-01-23T17:52:20.901Z,2.52
2023-01-23T17:54:49.514Z,2.63
2023-01-23T17:57:18.456Z,2.64
2023-01-23T17:59:47.037Z,2.64
2023-01-23T18:02:25.480Z,2.64
2023-01-23T18:04:54.066Z,2.77
2023-01-23T18:07:22.484Z,2.78
2023-01-23T18:09:51.724Z,2.84
2023-01-23T18:12:28.586Z,2.86
2023-01-23T18:15:04.940Z,3.03
2023-01-23T18:17:42.284Z,2.93
2023-01-23T18:20:21.528Z,2.93
2023-01-23T18:22:51.227Z,2.93
2023-01-23T18:25:21.509Z,2.86
2023-01-23T18:27:54.584Z,2.75
2023-01-23T18:30:42.817Z,2.85
2023-01-23T18:33:36.340Z,2.88
2023-01-23T18:36:18.509Z,2.88
2023-01-23T18:39:05.817Z,2.84
2023-01-23T18:41:34.869Z,2.97
2023-01-23T18:44:09.760Z,2.91
2023-01-23T18:46:39.245Z,2.97
2023-01-23T18:49:09.677Z,2.92
2023-01-23T18:51:45.770Z,2.91
2023-01-23T18:54:25.467Z,2.90
2023-01-23T18:57:06.712Z,2.82
2023-01-23T18:59:40.654Z,2.84
2023-01-23T19:02:23.985Z,2.80
2023-01-23T19:05:03.603Z,2.82
2023-01-23T19:07:33.101Z,2.82
2023-01-23T19:10:02.242Z,2.88
2023-01-23T19:12:40.261Z,2.85
2023-01-23T19:15:22.896Z,2.76
2023-01-23T19:18:00.298Z,2.68
2023-01-23T19:20:35.688Z,2.79
2023-01-23T19:23:18.034Z,2.85
2023-01-23T19:25:47.384Z,2.89
2023-01-23T19:28:16.753Z,2.92
2023-01-23T19:30:46.265Z,2.77
2023-01-23T19:33:17.106Z,2.58
2023-01-23T19:35:47.181Z,2.56
2023-01-23T19:38:16.232Z,2.63
2023-01-23T19:40:46.139Z,2.66
2023-01-23T19:43:16.021Z,2.75
2023-01-23T19:45:45.223Z,2.83
2023-01-23T19:48:14.050Z,2.86
2023-01-23T19:50:43.271Z,2.82
2023-01-23T19:53:13.543Z,2.85
2023-01-23T19:55:42.089Z,2.83
2023-01-23T19:58:10.665Z,2.88
2023-01-23T20:00:43.765Z,2.88
2023-01-23T20:03:13.855Z,3.09
2023-01-23T20:05:42.286Z,3.21
2023-01-23T20:08:10.814Z,6.31
2023-01-23T20:10:39.294Z,5.08
2023-01-23T20:13:08.381Z,3.94
2023-01-23T20:15:43.104Z,3.57
2023-01-23T20:18:12.304Z,3.33
2023-01-23T20:20:40.716Z,3.25
2023-01-23T20:23:09.143Z,3.03
2023-01-23T20:25:38.050Z,3.02
2023-01-23T20:28:13.958Z,3.01
2023-01-23T20:30:42.907Z,2.98
2023-01-23T20:33:12.575Z,3.04
2023-01-23T20:35:41.245Z,3.04
2023-01-23T20:38:09.652Z,2.99
2023-01-23T20:40:38.454Z,2.95
2023-01-23T20:43:07.681Z,2.98
2023-01-23T20:45:36.441Z,3.01
2023-01-23T20:48:06.181Z,3.05
2023-01-23T20:50:36.799Z,3.04
2023-01-23T20:53:23.468Z,3.04
2023-01-23T20:55:55.169Z,2.97
2023-01-23T20:58:43.453Z,2.98
2023-01-23T21:01:15.678Z,2.83
2023-01-23T21:03:47.274Z,2.88
2023-01-23T21:06:18.564Z,2.93
2023-01-23T21:08:47.738Z,5.21
2023-01-23T21:11:18.487Z,4.21
2023-01-23T21:13:52.760Z,3.63
2023-01-23T21:16:21.508Z,3.34
2023-01-23T21:18:50.005Z,3.23
2023-01-23T21:21:20.705Z,3.12
2023-01-23T21:24:02.354Z,3.05
2023-01-23T21:26:31.018Z,2.97
2023-01-23T21:29:00.089Z,2.89
2023-01-23T21:31:36.305Z,2.95
2023-01-23T21:34:08.981Z,2.99
2023-01-23T21:36:38.912Z,2.92
2023-01-23T21:39:09.416Z,2.84
2023-01-23T21:41:38.783Z,2.71
2023-01-23T21:44:09.777Z,2.71
2023-01-23T21:46:38.727Z,2.77
2023-01-23T21:49:16.315Z,2.86
2023-01-23T21:51:44.826Z,2.85
2023-01-23T21:54:13.412Z,2.88
2023-01-23T21:56:41.920Z,2.85
2023-01-23T21:59:11.696Z,2.91
2023-01-23T22:01:42.038Z,2.83
2023-01-23T22:04:12.249Z,2.83
2023-01-23T22:06:42.606Z,2.69
2023-01-23T22:09:14.878Z,2.78
2023-01-23T22:11:44.007Z,2.83
2023-01-23T22:14:12.908Z,2.84
2023-01-23T22:16:50.325Z,2.86
2023-01-23T22:19:24.646Z,2.86
2023-01-23T22:21:54.804Z,2.91
2023-01-23T22:24:23.743Z,2.88
2023-01-23T22:26:52.375Z,2.80
2023-01-23T22:29:22.051Z,2.60
2023-01-23T22:31:51.553Z,2.57
2023-01-23T22:34:20.324Z,2.62
2023-01-23T22:36:48.861Z,2.65
2023-01-23T22:39:19.002Z,2.66
2023-01-23T22:41:49.281Z,2.58
2023-01-23T22:44:18.252Z,2.56
2023-01-23T22:46:49.268Z,2.50
2023-01-23T22:49:17.555Z,2.56
2023-01-23T22:51:46.881Z,2.63
2023-01-23T22:54:15.752Z,2.68
2023-01-23T22:56:44.591Z,2.67
2023-01-23T22:59:13.063Z,2.69
2023-01-23T23:01:41.354Z,2.60
2023-01-23T23:04:10.479Z,2.52
2023-01-23T23:06:39.183Z,2.53
2023-01-23T23:09:10.039Z,2.47
2023-01-23T23:11:39.361Z,2.52
2023-01-23T23:14:08.560Z,2.53
2023-01-23T23:19:30.893Z,2.62
2023-01-23T23:21:59.293Z,2.65
2023-01-23T23:24:28.032Z,2.71
2023-01-23T23:26:56.489Z,2.75
2023-01-23T23:29:24.928Z,2.79
2023-01-23T23:31:53.772Z,2.79
2023-01-23T23:34:22.240Z,2.76
2023-01-23T23:36:50.556Z,2.63
2023-01-23T23:39:19.396Z,2.70
2023-01-23T23:41:47.866Z,2.72
2023-01-23T23:44:16.219Z,2.71
2023-01-23T23:46:44.600Z,2.64
2023-01-23T23:49:13.494Z,2.63
2023-01-23T23:51:41.825Z,2.63
2023-01-23T23:54:10.473Z,2.61
2023-01-23T23:56:39.126Z,2.55
2023-01-23T23:59:12.264Z,2.49
